createdAt,value
2018-04-15T00:01:31.904Z,41.40
2018-04-15T00:03:58.853Z,41.10
2018-04-15T00:06:25.967Z,41.00
2018-04-15T00:08:52.947Z,40.50
2018-04-15T00:11:19.816Z,40.50
2018-04-15T00:13:47.584Z,40.20
2018-04-15T00:16:15.330Z,40.30
2018-04-15T00:18:42.374Z,40.30
2018-04-15T00:21:09.420Z,40.50
2018-04-15T00:23:36.267Z,40.50
2018-04-15T00:26:03.211Z,40.90
2018-04-15T00:28:30.172Z,40.60
2018-04-15T00:30:57.106Z,40.30
2018-04-15T00:33:23.956Z,41.20
2018-04-15T00:35:51.655Z,41.10
2018-04-15T00:38:19.386Z,40.50
2018-04-15T00:40:46.228Z,40.40
2018-04-15T00:43:13.183Z,40.10
2018-04-15T00:45:40.335Z,40.40
2018-04-15T00:48:07.168Z,40.40
2018-04-15T00:50:34.015Z,40.40
2018-04-15T00:53:01.073Z,40.20
2018-04-15T00:55:28.115Z,39.70
2018-04-15T00:57:55.059Z,39.20
2018-04-15T01:00:22.017Z,38.70
2018-04-15T01:02:48.956Z,38.60
2018-04-15T01:05:15.805Z,38.50
2018-04-15T01:07:42.746Z,38.80
2018-04-15T01:10:09.799Z,39.30
2018-04-15T01:12:36.754Z,38.80
2018-04-15T01:15:03.698Z,38.90
2018-04-15T01:17:30.641Z,39.10
2018-04-15T01:19:57.704Z,39.10
2018-04-15T01:22:24.532Z,39.10
2018-04-15T01:24:52.200Z,38.90
2018-04-15T01:27:19.154Z,38.90
2018-04-15T01:29:46.305Z,39.00
2018-04-15T01:32:13.355Z,39.10
2018-04-15T01:34:40.920Z,38.70
2018-04-15T01:37:08.682Z,39.20
2018-04-15T01:39:35.780Z,39.10
2018-04-15T01:42:02.783Z,38.10
2018-04-15T01:44:29.724Z,38.40
2018-04-15T01:46:56.675Z,39.30
2018-04-15T01:49:23.725Z,39.50
2018-04-15T01:51:50.680Z,38.90
2018-04-15T01:54:17.490Z,39.50
2018-04-15T01:56:44.334Z,39.70
2018-04-15T01:59:11.299Z,39.20
2018-04-15T02:01:38.250Z,39.40
2018-04-15T02:04:05.202Z,39.70
2018-04-15T02:06:32.142Z,39.90
2018-04-15T02:08:58.969Z,39.80
2018-04-15T02:11:26.043Z,40.10
2018-04-15T02:13:53.093Z,40.40
2018-04-15T02:16:20.143Z,40.90
2018-04-15T02:18:47.081Z,43.20
2018-04-15T02:21:14.129Z,43.50
2018-04-15T02:23:41.086Z,43.30
2018-04-15T02:26:08.007Z,43.10
2018-04-15T02:28:34.982Z,42.80
2018-04-15T02:31:02.039Z,42.00
2018-04-15T02:33:29.083Z,41.40
2018-04-15T02:35:56.132Z,41.50
2018-04-15T02:38:23.079Z,41.40
2018-04-15T02:40:50.119Z,41.70
2018-04-15T02:43:17.176Z,42.00
2018-04-15T02:45:44.118Z,41.50
2018-04-15T02:48:11.070Z,41.20
2018-04-15T02:50:38.112Z,41.40
2018-04-15T02:53:05.056Z,42.00
2018-04-15T02:55:31.788Z,41.10
2018-04-15T02:57:58.752Z,41.10
2018-04-15T03:00:25.590Z,41.10
2018-04-15T03:02:52.542Z,41.20
2018-04-15T03:05:19.487Z,40.90
2018-04-15T03:07:46.358Z,41.40
2018-04-15T03:10:13.389Z,41.50
2018-04-15T03:12:40.326Z,41.30
2018-04-15T03:15:07.278Z,41.50
2018-04-15T03:17:34.229Z,41.60
2018-04-15T03:20:01.068Z,41.30
2018-04-15T03:22:28.013Z,40.90
2018-04-15T03:24:55.072Z,40.50
2018-04-15T03:27:22.111Z,40.50
2018-04-15T03:29:49.068Z,40.00
2018-04-15T03:32:15.881Z,40.00
2018-04-15T03:34:43.466Z,40.30
2018-04-15T03:37:10.420Z,40.50
2018-04-15T03:39:37.341Z,40.50
2018-04-15T03:42:04.108Z,40.60
2018-04-15T03:44:31.065Z,41.20
2018-04-15T03:46:57.790Z,40.40
2018-04-15T03:49:24.739Z,41.00
2018-04-15T03:51:51.796Z,41.00
2018-04-15T03:54:18.738Z,40.90
2018-04-15T03:56:45.680Z,40.90
2018-04-15T03:59:12.638Z,40.80
2018-04-15T04:01:39.575Z,40.80
2018-04-15T04:04:21.472Z,40.70
2018-04-15T04:06:48.429Z,41.30
2018-04-15T04:09:15.162Z,40.80
2018-04-15T04:11:42.123Z,40.80
2018-04-15T04:14:09.171Z,41.30
2018-04-15T04:16:36.105Z,40.60
2018-04-15T04:19:15.238Z,40.70
2018-04-15T04:21:54.169Z,40.70
2018-04-15T04:24:33.413Z,40.40
2018-04-15T04:27:00.257Z,40.00
2018-04-15T04:29:27.306Z,39.60
2018-04-15T04:31:54.260Z,39.50
2018-04-15T04:34:21.303Z,39.60
2018-04-15T04:36:48.344Z,38.80
2018-04-15T04:39:15.288Z,38.70
2018-04-15T04:41:42.118Z,39.00
2018-04-15T04:44:09.092Z,39.00
2018-04-15T04:46:36.038Z,39.10
2018-04-15T04:49:03.077Z,39.90
2018-04-15T04:51:29.922Z,40.10
2018-04-15T04:53:56.874Z,40.10
2018-04-15T04:56:23.926Z,40.00
2018-04-15T04:58:51.696Z,39.80
2018-04-15T05:01:18.631Z,39.80
2018-04-15T05:03:45.589Z,40.30
2018-04-15T05:06:12.536Z,40.50
2018-04-15T05:08:39.371Z,40.50
2018-04-15T05:11:06.367Z,39.50
2018-04-15T05:13:42.960Z,39.50
2018-04-15T05:16:09.838Z,39.50
2018-04-15T05:18:36.640Z,39.70
2018-04-15T05:21:04.346Z,39.80
2018-04-15T05:23:31.293Z,39.70
2018-04-15T05:25:58.252Z,39.60
2018-04-15T05:28:25.290Z,39.70
2018-04-15T05:30:52.351Z,40.20
2018-04-15T05:33:19.145Z,40.80
2018-04-15T05:35:46.142Z,41.40
2018-04-15T05:38:13.287Z,41.40
2018-04-15T05:40:40.240Z,41.50
2018-04-15T05:43:07.177Z,42.00
2018-04-15T05:45:34.127Z,41.80
2018-04-15T05:48:00.866Z,41.70
2018-04-15T05:50:27.926Z,41.80
2018-04-15T05:52:54.884Z,42.50
2018-04-15T05:55:21.664Z,42.50
2018-04-15T05:57:48.668Z,42.70
2018-04-15T06:00:15.713Z,42.40
2018-04-15T06:02:42.654Z,42.30
2018-04-15T06:05:09.715Z,43.10
2018-04-15T06:07:36.692Z,42.50
2018-04-15T06:10:04.518Z,43.20
2018-04-15T06:12:31.467Z,43.20
2018-04-15T06:14:58.536Z,43.40
2018-04-15T06:17:26.099Z,43.30
2018-04-15T06:19:53.339Z,43.30
2018-04-15T06:22:20.276Z,43.20
2018-04-15T06:24:47.124Z,43.60
2018-04-15T06:27:14.584Z,44.70
2018-04-15T06:29:42.847Z,44.20
2018-04-15T06:32:09.808Z,43.10
2018-04-15T06:34:36.753Z,43.20
2018-04-15T06:37:03.703Z,44.10
2018-04-15T06:39:30.657Z,44.60
2018-04-15T06:41:58.321Z,44.40
2018-04-15T06:44:25.974Z,43.30
2018-04-15T06:46:52.921Z,43.20
2018-04-15T06:49:20.957Z,42.50
2018-04-15T06:51:47.840Z,42.20
2018-04-15T06:54:14.797Z,42.90
2018-04-15T06:56:42.772Z,43.20
2018-04-15T06:59:09.810Z,43.30
2018-04-15T07:01:36.675Z,43.30
2018-04-15T07:04:04.482Z,43.70
2018-04-15T07:06:31.878Z,43.70
2018-04-15T07:08:59.755Z,44.50
2018-04-15T07:11:27.302Z,44.50
2018-04-15T07:14:16.877Z,44.20
2018-04-15T07:16:43.945Z,43.30
2018-04-15T07:19:10.987Z,44.10
2018-04-15T07:21:38.141Z,44.10
2018-04-15T07:24:05.815Z,43.70
2018-04-15T07:26:33.068Z,43.70
2018-04-15T07:29:00.014Z,42.60
2018-04-15T07:31:26.959Z,42.60
2018-04-15T07:33:54.001Z,42.30
2018-04-15T07:36:21.059Z,42.80
2018-04-15T07:38:47.892Z,42.10
2018-04-15T07:41:14.845Z,41.50
2018-04-15T07:43:41.900Z,42.60
2018-04-15T07:46:08.734Z,43.20
2018-04-15T07:48:35.567Z,42.20
2018-04-15T07:51:02.741Z,42.10
2018-04-15T07:53:30.190Z,42.80
2018-04-15T07:55:57.444Z,43.70
2018-04-15T07:58:24.711Z,43.70
2018-04-15T08:00:52.567Z,44.10
2018-04-15T08:03:20.447Z,44.00
2018-04-15T08:05:48.305Z,44.90
2018-04-15T08:08:15.255Z,44.80
2018-04-15T08:10:43.737Z,45.00
2018-04-15T08:13:10.727Z,45.40
2018-04-15T08:15:37.749Z,45.20
2018-04-15T08:18:04.799Z,45.30
2018-04-15T08:20:31.835Z,45.00
2018-04-15T08:22:58.777Z,45.10
2018-04-15T08:25:25.728Z,45.20
2018-04-15T08:27:52.723Z,45.60
2018-04-15T08:33:51.391Z,45.70
2018-04-15T08:36:18.242Z,45.70
2018-04-15T08:38:45.283Z,45.90
2018-04-15T08:41:12.443Z,46.00
2018-04-15T08:43:39.261Z,46.20
2018-04-15T08:46:06.954Z,46.30
2018-04-15T08:48:33.799Z,46.30
2018-04-15T08:51:00.839Z,46.20
2018-04-15T08:53:27.648Z,46.90
2018-04-15T08:55:54.667Z,47.00
2018-04-15T08:58:21.588Z,46.90
2018-04-15T09:00:48.504Z,46.80
2018-04-15T09:03:15.684Z,46.30
2018-04-15T09:05:42.521Z,46.70
2018-04-15T09:08:09.579Z,46.80
2018-04-15T09:10:41.659Z,46.80
2018-04-15T09:13:09.413Z,47.90
2018-04-15T09:15:37.219Z,47.60
2018-04-15T09:18:04.970Z,47.80
2018-04-15T09:20:32.721Z,47.30
2018-04-15T09:22:59.647Z,47.30
2018-04-15T09:25:26.595Z,48.20
2018-04-15T09:27:53.545Z,48.90
2018-04-15T09:30:20.603Z,50.00
2018-04-15T09:32:49.077Z,50.00
2018-04-15T09:35:16.028Z,50.00
2018-04-15T09:37:43.082Z,49.40
2018-04-15T09:40:10.131Z,49.30
2018-04-15T09:42:37.107Z,49.60
2018-04-15T09:45:04.127Z,50.10
2018-04-15T09:47:31.372Z,50.20
2018-04-15T09:49:58.327Z,50.00
2018-04-15T09:52:25.274Z,50.00
2018-04-15T09:54:52.313Z,50.40
2018-04-15T09:57:19.163Z,50.60
2018-04-15T09:59:46.311Z,50.20
2018-04-15T10:02:13.359Z,50.30
2018-04-15T10:04:40.935Z,50.50
2018-04-15T10:07:07.891Z,50.60
2018-04-15T10:09:35.948Z,50.90
2018-04-15T10:12:02.789Z,51.40
2018-04-15T10:14:56.791Z,50.90
2018-04-15T10:17:23.824Z,51.00
2018-04-15T10:19:51.647Z,50.60
2018-04-15T10:22:18.641Z,50.30
2018-04-15T10:24:45.503Z,50.20
2018-04-15T10:27:12.465Z,51.00
2018-04-15T10:29:40.565Z,50.00
2018-04-15T10:32:08.369Z,50.20
2018-04-15T10:34:35.325Z,50.10
2018-04-15T10:37:02.288Z,50.20
2018-04-15T10:39:30.038Z,49.80
2018-04-15T10:41:56.961Z,49.80
2018-04-15T10:44:23.718Z,49.60
2018-04-15T10:46:50.767Z,50.00
2018-04-15T10:49:17.718Z,50.30
2018-04-15T10:51:44.672Z,51.00
2018-04-15T10:54:11.729Z,50.70
2018-04-15T10:56:38.764Z,50.40
2018-04-15T10:59:05.821Z,49.70
2018-04-15T11:01:32.865Z,48.60
2018-04-15T11:03:59.682Z,48.70
2018-04-15T11:06:26.658Z,48.80
2018-04-15T11:08:53.479Z,48.70
2018-04-15T11:11:20.547Z,48.50
2018-04-15T11:13:59.036Z,48.80
2018-04-15T11:16:26.013Z,48.00
2018-04-15T11:18:53.689Z,48.30
2018-04-15T11:21:20.628Z,48.30
2018-04-15T11:23:47.683Z,48.30
2018-04-15T11:26:14.733Z,48.70
2018-04-15T11:28:41.774Z,48.20
2018-04-15T11:31:09.542Z,48.80
2018-04-15T11:33:36.624Z,48.70
2018-04-15T11:36:04.356Z,49.20
2018-04-15T11:38:31.198Z,49.20
2018-04-15T11:40:58.261Z,49.30
2018-04-15T11:43:25.307Z,48.90
2018-04-15T11:45:52.247Z,48.70
2018-04-15T11:48:18.974Z,48.50
2018-04-15T11:50:45.855Z,48.20
2018-04-15T11:53:12.900Z,49.20
2018-04-15T11:55:39.831Z,49.40
2018-04-15T11:58:06.708Z,50.10
2018-04-15T12:00:34.338Z,50.50
2018-04-15T12:03:01.500Z,50.30
2018-04-15T12:05:28.550Z,50.00
2018-04-15T12:07:55.599Z,49.30
2018-04-15T12:10:22.661Z,49.10
2018-04-15T12:12:49.595Z,48.90
2018-04-15T12:15:24.918Z,49.20
2018-04-15T12:17:51.878Z,49.70
2018-04-15T12:20:18.929Z,49.90
2018-04-15T12:22:45.728Z,49.90
2018-04-15T12:25:12.724Z,48.80
2018-04-15T12:27:39.676Z,48.90
2018-04-15T12:30:20.166Z,49.30
2018-04-15T12:32:47.759Z,48.90
2018-04-15T12:35:15.472Z,48.00
2018-04-15T12:37:42.372Z,48.00
2018-04-15T12:40:09.467Z,47.40
2018-04-15T12:42:42.004Z,47.70
2018-04-15T12:45:09.101Z,48.30
2018-04-15T12:47:36.344Z,48.50
2018-04-15T12:50:03.604Z,48.20
2018-04-15T12:52:30.539Z,48.10
2018-04-15T12:55:00.883Z,49.70
2018-04-15T12:57:28.550Z,50.10
2018-04-15T12:59:55.594Z,50.10
2018-04-15T13:02:22.650Z,49.20
2018-04-15T13:04:49.699Z,49.30
2018-04-15T13:07:16.741Z,50.40
2018-04-15T13:09:44.597Z,50.10
2018-04-15T13:12:11.672Z,50.40
2018-04-15T13:17:39.855Z,50.80
2018-04-15T13:20:07.725Z,51.00
2018-04-15T13:22:34.809Z,51.00
2018-04-15T13:25:02.427Z,52.30
2018-04-15T13:27:29.493Z,52.30
2018-04-15T13:29:56.438Z,53.00
2018-04-15T13:32:23.484Z,53.80
2018-04-15T13:34:50.526Z,54.10
2018-04-15T13:37:17.478Z,54.90
2018-04-15T13:39:44.941Z,55.00
2018-04-15T13:42:11.984Z,55.30
2018-04-15T13:44:38.943Z,55.40
2018-04-15T13:47:11.893Z,54.00
2018-04-15T13:49:39.071Z,52.90
2018-04-15T13:52:06.058Z,51.70
2018-04-15T13:54:33.904Z,53.40
2018-04-15T13:57:01.013Z,53.30
2018-04-15T13:59:28.245Z,54.90
2018-04-15T14:01:56.625Z,54.60
2018-04-15T14:04:23.856Z,54.50
2018-04-15T14:06:51.961Z,53.40
2018-04-15T14:09:19.394Z,53.40
2018-04-15T14:11:47.405Z,53.10
2018-04-15T14:17:14.733Z,53.20
2018-04-15T14:19:44.251Z,52.80
2018-04-15T14:22:12.439Z,53.30
2018-04-15T14:24:40.949Z,53.90
2018-04-15T14:27:09.091Z,53.80
2018-04-15T14:29:37.369Z,53.70
2018-04-15T14:32:05.853Z,53.90
2018-04-15T14:34:33.803Z,53.50
2018-04-15T14:37:00.953Z,53.40
2018-04-15T14:39:28.833Z,53.60
2018-04-15T14:41:57.020Z,53.20
2018-04-15T14:44:25.263Z,53.60
2018-04-15T14:46:52.543Z,53.50
2018-04-15T14:49:19.803Z,53.50
2018-04-15T14:51:47.922Z,53.30
2018-04-15T14:54:16.355Z,52.90
2018-04-15T14:56:44.533Z,52.80
2018-04-15T14:59:12.971Z,53.30
2018-04-15T15:01:41.295Z,50.70
2018-04-15T15:04:09.590Z,50.40
2018-04-15T15:06:37.855Z,51.50
2018-04-15T15:09:06.361Z,50.30
2018-04-15T15:11:34.448Z,49.50
2018-04-15T15:14:24.422Z,49.50
2018-04-15T15:16:52.467Z,50.60
2018-04-15T15:19:20.625Z,50.60
2018-04-15T15:21:48.752Z,50.90
2018-04-15T15:24:16.934Z,51.00
2018-04-15T15:26:45.387Z,51.40
2018-04-15T15:29:13.673Z,51.90
2018-04-15T15:31:42.040Z,52.00
2018-04-15T15:34:10.428Z,52.10
2018-04-15T15:36:38.479Z,51.30
2018-04-15T15:39:06.429Z,51.10
2018-04-15T15:41:34.132Z,51.10
2018-04-15T15:44:02.415Z,50.90
2018-04-15T15:46:30.823Z,50.40
2018-04-15T15:48:59.195Z,50.10
2018-04-15T15:51:27.496Z,49.70
2018-04-15T15:53:55.113Z,49.70
2018-04-15T15:56:23.391Z,49.40
2018-04-15T15:58:51.370Z,49.10
2018-04-15T16:01:20.575Z,49.70
2018-04-15T16:03:48.022Z,49.60
2018-04-15T16:06:16.416Z,48.40
2018-04-15T16:08:44.076Z,48.30
2018-04-15T16:11:12.389Z,48.20
2018-04-15T16:13:46.724Z,47.80
2018-04-15T16:16:14.534Z,47.60
2018-04-15T16:18:42.922Z,47.00
2018-04-15T16:21:10.490Z,46.80
2018-04-15T16:23:37.897Z,46.80
2018-04-15T16:26:06.834Z,46.20
2018-04-15T16:28:34.295Z,46.50
2018-04-15T16:31:02.679Z,45.90
2018-04-15T16:33:30.946Z,45.80
2018-04-15T16:35:59.226Z,45.70
2018-04-15T16:38:27.461Z,45.70
2018-04-15T16:40:54.974Z,45.60
2018-04-15T16:43:23.150Z,45.20
2018-04-15T16:45:51.475Z,45.10
2018-04-15T16:48:19.900Z,44.90
2018-04-15T16:50:48.454Z,44.50
2018-04-15T16:53:17.624Z,43.20
2018-04-15T16:55:45.160Z,43.20
2018-04-15T16:58:12.655Z,43.50
2018-04-15T17:00:40.074Z,43.90
2018-04-15T17:03:08.472Z,43.40
2018-04-15T17:05:36.734Z,43.50
2018-04-15T17:08:05.208Z,43.50
2018-04-15T17:10:39.401Z,43.10
2018-04-15T17:13:07.802Z,43.70
2018-04-15T17:18:43.174Z,43.00
2018-04-15T17:21:11.247Z,42.80
2018-04-15T17:23:39.625Z,43.10
2018-04-15T17:26:07.910Z,42.90
2018-04-15T17:28:36.119Z,42.70
2018-04-15T17:31:04.480Z,42.50
2018-04-15T17:33:32.803Z,42.80
2018-04-15T17:36:01.223Z,43.10
2018-04-15T17:38:29.717Z,43.50
2018-04-15T17:40:58.048Z,43.70
2018-04-15T17:43:25.649Z,43.60
2018-04-15T17:45:53.427Z,43.10
2018-04-15T17:48:21.900Z,42.90
2018-04-15T17:50:50.278Z,42.50
2018-04-15T17:53:18.600Z,42.80
2018-04-15T17:55:46.945Z,42.80
2018-04-15T17:58:15.070Z,42.70
2018-04-15T18:00:43.811Z,42.60
2018-04-15T18:03:12.283Z,42.70
2018-04-15T18:05:40.666Z,42.50
2018-04-15T18:08:09.047Z,42.30
2018-04-15T18:10:41.275Z,41.80
2018-04-15T18:13:08.775Z,41.80
2018-04-15T18:18:41.387Z,41.70
2018-04-15T18:21:08.669Z,41.60
2018-04-15T18:23:36.809Z,42.20
2018-04-15T18:26:04.727Z,42.30
2018-04-15T18:28:32.567Z,42.00
2018-04-15T18:31:00.685Z,41.90
2018-04-15T18:33:28.691Z,41.70
2018-04-15T18:35:56.981Z,41.80
2018-04-15T18:38:25.158Z,41.70
2018-04-15T18:40:53.430Z,41.80
2018-04-15T18:43:21.660Z,41.80
2018-04-15T18:45:50.392Z,41.90
2018-04-15T18:48:18.877Z,41.80
2018-04-15T18:50:47.164Z,41.50
2018-04-15T18:53:15.707Z,40.80
2018-04-15T18:55:42.997Z,40.70
2018-04-15T18:58:11.385Z,40.80
2018-04-15T19:00:39.838Z,40.80
2018-04-15T19:03:08.251Z,41.80
2018-04-15T19:05:36.830Z,41.20
2018-04-15T19:08:05.048Z,41.00
2018-04-15T19:10:32.989Z,41.00
2018-04-15T19:13:02.173Z,41.20
2018-04-15T19:18:38.572Z,41.30
2018-04-15T19:21:06.984Z,41.30
2018-04-15T19:23:34.196Z,41.30
2018-04-15T19:26:02.383Z,40.70
2018-04-15T19:28:30.862Z,41.00
2018-04-15T19:30:59.142Z,41.20
2018-04-15T19:33:27.417Z,41.40
2018-04-15T19:35:55.696Z,41.50
2018-04-15T19:38:23.988Z,41.40
2018-04-15T19:40:51.637Z,41.40
2018-04-15T19:43:19.586Z,41.60
2018-04-15T19:45:46.810Z,41.60
2018-04-15T19:48:14.215Z,41.40
2018-04-15T19:50:42.393Z,40.60
2018-04-15T19:53:10.833Z,40.70
2018-04-15T19:55:39.206Z,40.90
2018-04-15T19:58:06.659Z,40.80
2018-04-15T20:00:34.932Z,41.40
2018-04-15T20:03:04.150Z,41.70
2018-04-15T20:05:32.067Z,41.50
2018-04-15T20:08:00.351Z,41.30
2018-04-15T20:10:32.436Z,41.20
2018-04-15T20:13:00.864Z,41.40
2018-04-15T20:18:51.827Z,41.20
2018-04-15T20:21:20.252Z,41.20
2018-04-15T20:23:48.481Z,41.60
2018-04-15T20:29:24.766Z,41.70
2018-04-15T20:31:53.673Z,41.80
2018-04-15T20:34:22.270Z,41.80
2018-04-15T20:36:50.626Z,40.60
2018-04-15T20:39:19.518Z,41.10
2018-04-15T20:41:47.693Z,41.40
2018-04-15T20:44:16.996Z,41.70
2018-04-15T20:46:46.513Z,42.40
2018-04-15T20:49:15.027Z,42.90
2018-04-15T20:51:43.577Z,43.90
2018-04-15T20:54:12.820Z,45.80
2018-04-15T20:56:40.546Z,45.60
2018-04-15T20:59:09.025Z,46.80
2018-04-15T21:01:37.536Z,47.10
2018-04-15T21:04:04.861Z,47.00
2018-04-15T21:06:33.180Z,48.00
2018-04-15T21:09:00.804Z,48.00
2018-04-15T21:11:29.406Z,49.00
2018-04-15T21:14:30.640Z,48.90
2018-04-15T21:17:06.397Z,49.60
2018-04-15T21:19:34.683Z,49.60
2018-04-15T21:22:03.058Z,49.80
2018-04-15T21:24:31.245Z,49.80
2018-04-15T21:26:58.686Z,49.70
2018-04-15T21:29:26.906Z,50.30
2018-04-15T21:31:55.245Z,50.60
2018-04-15T21:34:23.733Z,50.70
2018-04-15T21:36:52.007Z,50.70
2018-04-15T21:39:20.590Z,50.60
2018-04-15T21:41:48.658Z,50.60
2018-04-15T21:44:15.919Z,50.50
2018-04-15T21:46:44.309Z,50.40
2018-04-15T21:49:12.507Z,50.30
2018-04-15T21:51:40.862Z,50.20
2018-04-15T21:54:09.149Z,50.40
2018-04-15T21:56:37.419Z,50.70
2018-04-15T21:59:05.375Z,50.90
2018-04-15T22:01:33.119Z,51.10
2018-04-15T22:04:00.065Z,51.00
2018-04-15T22:06:27.118Z,51.10
2018-04-15T22:08:54.167Z,51.20
2018-04-15T22:11:33.198Z,51.20
2018-04-15T22:14:00.035Z,50.20
2018-04-15T22:16:28.002Z,50.30
2018-04-15T22:18:54.925Z,50.50
2018-04-15T22:21:21.897Z,50.80
2018-04-15T22:23:48.957Z,51.10
2018-04-15T22:26:15.876Z,51.20
2018-04-15T22:28:42.840Z,51.70
2018-04-15T22:31:09.704Z,51.90
2018-04-15T22:33:36.737Z,51.80
2018-04-15T22:36:03.731Z,52.10
2018-04-15T22:38:31.462Z,52.40
2018-04-15T22:40:59.226Z,52.00
2018-04-15T22:43:26.167Z,52.30
2018-04-15T22:45:53.115Z,52.40
2018-04-15T22:48:20.062Z,52.30
2018-04-15T22:50:47.929Z,52.40
2018-04-15T22:53:14.985Z,52.40
2018-04-15T22:55:42.139Z,52.40
2018-04-15T22:58:09.078Z,52.40
2018-04-15T23:00:36.027Z,52.80
2018-04-15T23:03:02.866Z,52.60
2018-04-15T23:05:29.926Z,52.50
2018-04-15T23:07:56.657Z,52.70
2018-04-15T23:10:23.717Z,52.80
2018-04-15T23:12:50.767Z,53.00
2018-04-15T23:15:17.817Z,53.30
2018-04-15T23:17:44.855Z,53.40
2018-04-15T23:20:16.005Z,53.50
2018-04-15T23:22:43.062Z,53.60
2018-04-15T23:25:09.997Z,53.70
2018-04-15T23:27:36.946Z,53.90
2018-04-15T23:30:04.021Z,53.90
2018-04-15T23:32:31.773Z,53.70
2018-04-15T23:34:58.708Z,53.60
2018-04-15T23:37:25.668Z,53.60
2018-04-15T23:39:52.714Z,53.60
2018-04-15T23:42:19.767Z,53.50
2018-04-15T23:44:46.612Z,53.30
2018-04-15T23:47:13.661Z,53.10
2018-04-15T23:49:40.703Z,52.80
2018-04-15T23:52:07.758Z,52.80
2018-04-15T23:54:34.592Z,52.80
2018-04-15T23:57:01.663Z,52.70
2018-04-15T23:59:28.524Z,52.70
